Terminal Aerodrome Forecast
Issued by NWS

Home | Current Version | Previous Version | Text Only | Print | Product List | Glossary On
Versions: 1 2 3 4 5 6 7 8 9 10 11 12 13
000
FTAK31 PAJN 272300
TAFAWG
TAF
PAWG 272326Z 2800/2824 27007KT P6SM VCSH SCT035 BKN060
      TEMPO 2800/2803 34008KT -SHRA BKN035
     FM280600 30005KT P6SM BKN040 BKN100
     FM281200 VRB04KT P6SM VCSH BKN030 OVC080
     FM281800 30007KT P6SM SCT035 BKN080
      AMD LTD TO CLD VIS AND WIND 2806/2815=

USA.gov is the U.S. government's official web portal to all federal, state and local government web resources and services.